createdAt,value
2023-01-13T00:01:41.914Z,28.17
2023-01-13T00:04:11.696Z,31.00
2023-01-13T00:06:40.091Z,36.30
2023-01-13T00:09:08.894Z,33.58
2023-01-13T00:11:37.834Z,30.15
2023-01-13T00:14:06.304Z,31.70
2023-01-13T00:16:34.480Z,27.60
2023-01-13T00:19:03.172Z,33.55
2023-01-13T00:21:31.994Z,32.88
2023-01-13T00:24:00.396Z,30.33
2023-01-13T00:26:35.779Z,33.10
2023-01-13T00:29:04.624Z,31.65
2023-01-13T00:31:33.177Z,32.97
2023-01-13T00:34:02.127Z,31.38
2023-01-13T00:36:33.198Z,33.95
2023-01-13T00:39:01.810Z,29.83
2023-01-13T00:41:49.819Z,34.50
2023-01-13T00:44:18.327Z,31.13
2023-01-13T00:46:46.546Z,26.83
2023-01-13T00:49:14.864Z,33.03
2023-01-13T00:51:43.854Z,31.05
2023-01-13T00:54:11.957Z,30.48
2023-01-13T00:56:41.480Z,33.55
2023-01-13T00:59:14.545Z,41.33
2023-01-13T01:01:43.474Z,36.05
2023-01-13T01:04:12.314Z,31.58
2023-01-13T01:06:40.568Z,32.75
2023-01-13T01:09:08.668Z,32.17
2023-01-13T01:11:37.261Z,29.60
2023-01-13T01:14:05.245Z,33.42
2023-01-13T01:16:34.639Z,34.40
2023-01-13T01:19:03.984Z,30.95
2023-01-13T01:21:33.906Z,37.65
2023-01-13T01:24:04.736Z,29.48
2023-01-13T01:26:33.342Z,35.35
2023-01-13T01:29:02.586Z,30.00
2023-01-13T01:31:36.159Z,34.50
2023-01-13T01:34:04.540Z,31.13
2023-01-13T01:36:34.972Z,36.50
2023-01-13T01:39:04.486Z,31.15
2023-01-13T01:41:35.023Z,30.73
2023-01-13T01:44:29.231Z,32.58
2023-01-13T01:46:57.740Z,28.33
2023-01-13T01:49:31.604Z,32.30
2023-01-13T01:52:15.072Z,29.52
2023-01-13T01:55:02.164Z,32.92
2023-01-13T01:57:37.239Z,31.52
2023-01-13T02:00:06.515Z,31.30
2023-01-13T02:02:43.260Z,29.65
2023-01-13T02:05:11.535Z,33.72
2023-01-13T02:07:42.361Z,34.83
2023-01-13T02:10:14.787Z,36.77
2023-01-13T02:12:45.085Z,32.92
2023-01-13T02:15:29.895Z,36.80
2023-01-13T02:18:16.680Z,30.33
2023-01-13T02:21:03.087Z,30.10
2023-01-13T02:23:55.529Z,33.13
2023-01-13T02:26:41.953Z,34.92
2023-01-13T02:29:34.358Z,32.42
2023-01-13T02:32:30.032Z,27.65
2023-01-13T02:35:14.587Z,34.08
2023-01-13T02:37:45.327Z,27.42
2023-01-13T02:40:29.606Z,30.30
2023-01-13T02:43:44.662Z,26.00
2023-01-13T02:46:31.119Z,30.83
2023-01-13T02:49:07.578Z,31.75
2023-01-13T02:51:38.070Z,32.85
2023-01-13T02:54:23.330Z,28.85
2023-01-13T02:56:54.812Z,25.52
2023-01-13T02:59:26.815Z,30.15
2023-01-13T03:01:58.299Z,27.42
2023-01-13T03:05:00.870Z,28.20
2023-01-13T03:07:57.073Z,31.88
2023-01-13T03:10:59.730Z,33.45
2023-01-13T03:13:40.589Z,32.22
2023-01-13T03:16:38.654Z,31.02
2023-01-13T03:19:59.303Z,28.58
2023-01-13T03:23:14.052Z,28.25
2023-01-13T03:26:12.722Z,32.50
2023-01-13T03:28:52.870Z,25.92
2023-01-13T03:31:32.306Z,30.42
2023-01-13T03:34:15.183Z,23.98
2023-01-13T03:36:48.010Z,28.08
2023-01-13T03:39:29.489Z,28.77
2023-01-13T03:42:11.056Z,23.20
2023-01-13T03:45:18.221Z,27.80
2023-01-13T03:47:57.499Z,27.63
2023-01-13T03:50:41.312Z,27.95
2023-01-13T03:53:21.014Z,27.20
2023-01-13T03:55:55.698Z,23.67
2023-01-13T03:58:29.619Z,25.90
2023-01-13T04:01:48.581Z,24.15
2023-01-13T04:04:45.508Z,29.40
2023-01-13T04:07:30.215Z,24.20
2023-01-13T04:10:02.464Z,24.40
2023-01-13T04:12:54.195Z,21.85
2023-01-13T04:15:27.475Z,23.70
2023-01-13T04:18:19.344Z,23.38
2023-01-13T04:20:50.329Z,22.45
2023-01-13T04:23:19.804Z,19.58
2023-01-13T04:25:49.509Z,26.48
2023-01-13T04:28:18.492Z,24.77
2023-01-13T04:30:47.985Z,24.85
2023-01-13T04:33:19.163Z,26.27
2023-01-13T04:35:48.071Z,23.10
2023-01-13T04:38:19.638Z,29.75
2023-01-13T04:40:48.466Z,28.88
2023-01-13T04:43:16.726Z,22.75
2023-01-13T04:45:45.145Z,22.42
2023-01-13T04:48:13.259Z,23.38
2023-01-13T04:50:41.757Z,20.92
2023-01-13T04:53:10.247Z,22.10
2023-01-13T04:55:38.474Z,20.77
2023-01-13T04:58:10.066Z,20.65
2023-01-13T05:03:06.811Z,19.30
2023-01-13T05:05:34.752Z,22.50
2023-01-13T05:08:03.446Z,19.00
2023-01-13T05:10:31.689Z,18.40
2023-01-13T05:13:18.143Z,18.95
2023-01-13T05:16:06.690Z,15.20
2023-01-13T05:18:35.404Z,15.13
2023-01-13T05:21:04.263Z,16.83
2023-01-13T05:23:51.697Z,16.42
2023-01-13T05:26:19.677Z,18.58
2023-01-13T05:28:47.588Z,19.00
2023-01-13T05:31:15.647Z,18.67
2023-01-13T05:33:43.651Z,16.42
2023-01-13T05:36:11.706Z,19.00
2023-01-13T05:38:39.757Z,17.08
2023-01-13T05:41:28.534Z,19.90
2023-01-13T05:43:56.855Z,18.05
2023-01-13T05:46:25.047Z,17.48
2023-01-13T05:48:53.204Z,16.52
2023-01-13T05:51:26.530Z,19.23
2023-01-13T05:53:54.740Z,18.52
2023-01-13T05:56:22.630Z,20.05
2023-01-13T05:58:51.451Z,19.13
2023-01-13T06:01:19.851Z,22.27
2023-01-13T06:03:47.935Z,20.15
2023-01-13T06:06:16.451Z,18.40
2023-01-13T06:08:44.626Z,19.02
2023-01-13T06:11:13.384Z,19.58
2023-01-13T06:13:41.629Z,17.00
2023-01-13T06:16:11.048Z,19.13
2023-01-13T06:18:39.026Z,16.92
2023-01-13T06:21:07.247Z,17.08
2023-01-13T06:23:38.621Z,16.20
2023-01-13T06:26:19.830Z,16.15
2023-01-13T06:28:50.113Z,15.88
2023-01-13T06:31:18.566Z,24.67
2023-01-13T06:33:56.145Z,12.60
2023-01-13T06:36:31.463Z,11.93
2023-01-13T06:39:01.579Z,17.30
2023-01-13T06:41:52.192Z,25.58
2023-01-13T06:44:21.344Z,23.83
2023-01-13T06:46:49.420Z,15.13
2023-01-13T06:49:17.503Z,21.60
2023-01-13T06:51:46.789Z,15.63
2023-01-13T06:54:14.794Z,15.88
2023-01-13T06:56:42.773Z,15.75
2023-01-13T06:59:11.392Z,14.63
2023-01-13T07:01:39.602Z,14.73
2023-01-13T07:04:07.747Z,15.90
2023-01-13T07:06:35.964Z,13.60
2023-01-13T07:09:06.017Z,19.30
2023-01-13T07:11:34.832Z,15.30
2023-01-13T07:14:21.779Z,16.70
2023-01-13T07:16:49.912Z,13.77
2023-01-13T07:19:23.445Z,16.50
2023-01-13T07:21:52.748Z,13.98
2023-01-13T07:24:23.445Z,16.27
2023-01-13T07:26:52.755Z,16.07
2023-01-13T07:29:21.688Z,17.85
2023-01-13T07:31:50.488Z,14.30
2023-01-13T07:34:19.135Z,14.95
2023-01-13T07:36:47.874Z,12.82
2023-01-13T07:39:16.137Z,17.70
2023-01-13T07:42:02.997Z,14.23
2023-01-13T07:44:31.462Z,12.68
2023-01-13T07:46:59.514Z,16.50
2023-01-13T07:49:27.520Z,14.90
2023-01-13T07:51:55.606Z,12.57
2023-01-13T07:54:35.213Z,14.30
2023-01-13T07:57:08.591Z,12.55
2023-01-13T07:59:37.195Z,15.63
2023-01-13T08:02:05.884Z,12.45
2023-01-13T08:04:34.817Z,15.93
2023-01-13T08:07:02.794Z,12.95
2023-01-13T08:09:30.893Z,13.20
2023-01-13T08:12:18.111Z,10.68
2023-01-13T08:14:46.707Z,16.55
2023-01-13T08:17:14.824Z,12.88
2023-01-13T08:19:43.070Z,14.27
2023-01-13T08:22:11.128Z,11.63
2023-01-13T08:24:39.500Z,14.20
2023-01-13T08:27:07.786Z,17.05
2023-01-13T08:29:35.863Z,14.52
2023-01-13T08:32:04.151Z,11.23
2023-01-13T08:34:32.214Z,16.38
2023-01-13T08:37:00.706Z,12.55
2023-01-13T08:39:30.360Z,15.05
2023-01-13T08:42:00.449Z,14.13
2023-01-13T08:44:32.049Z,13.48
2023-01-13T08:47:01.116Z,14.32
2023-01-13T08:49:29.479Z,14.10
2023-01-13T08:51:57.960Z,14.20
2023-01-13T08:54:26.289Z,12.93
2023-01-13T08:56:54.491Z,12.45
2023-01-13T08:59:22.731Z,14.48
2023-01-13T09:01:51.445Z,14.27
2023-01-13T09:04:25.558Z,11.32
2023-01-13T09:06:55.739Z,14.18
2023-01-13T09:09:25.636Z,17.23
2023-01-13T09:12:13.050Z,12.73
2023-01-13T09:14:41.386Z,12.80
2023-01-13T09:17:12.504Z,11.45
2023-01-13T09:19:41.206Z,12.07
2023-01-13T09:22:15.612Z,10.98
2023-01-13T09:24:44.380Z,12.82
2023-01-13T09:27:14.850Z,11.60
2023-01-13T09:29:43.258Z,13.80
2023-01-13T09:32:15.935Z,13.60
2023-01-13T09:35:02.684Z,11.90
2023-01-13T09:37:36.403Z,16.23
2023-01-13T09:40:10.016Z,15.73
2023-01-13T09:43:02.720Z,17.17
2023-01-13T09:45:50.472Z,14.90
2023-01-13T09:48:52.393Z,17.00
2023-01-13T09:51:45.962Z,12.55
2023-01-13T09:54:26.131Z,15.57
2023-01-13T09:56:54.339Z,13.98
2023-01-13T09:59:23.789Z,12.73
2023-01-13T10:02:03.115Z,16.00
2023-01-13T10:04:31.996Z,15.90
2023-01-13T10:07:07.227Z,13.80
2023-01-13T10:09:54.472Z,18.45
2023-01-13T10:12:45.621Z,13.45
2023-01-13T10:15:23.332Z,17.00
2023-01-13T10:18:22.772Z,19.60
2023-01-13T10:21:07.321Z,19.05
2023-01-13T10:24:01.677Z,30.00
2023-01-13T10:26:44.355Z,18.95
2023-01-13T10:29:25.641Z,25.67
2023-01-13T10:31:56.152Z,20.77
2023-01-13T10:34:26.917Z,23.85
2023-01-13T10:37:09.592Z,21.23
2023-01-13T10:39:44.979Z,21.17
2023-01-13T10:42:20.016Z,17.52
2023-01-13T10:44:55.614Z,15.93
2023-01-13T10:47:28.710Z,15.13
2023-01-13T10:50:12.195Z,19.75
2023-01-13T10:52:57.405Z,15.57
2023-01-13T10:55:33.696Z,16.13
2023-01-13T10:58:22.350Z,17.27
2023-01-13T11:01:12.433Z,15.95
2023-01-13T11:03:43.241Z,17.15
2023-01-13T11:06:26.701Z,13.75
2023-01-13T11:08:58.611Z,12.30
2023-01-13T11:11:43.732Z,15.23
2023-01-13T11:14:37.108Z,18.30
2023-01-13T11:17:35.167Z,17.50
2023-01-13T11:20:12.283Z,20.98
2023-01-13T11:22:56.092Z,17.85
2023-01-13T11:25:43.148Z,23.40
2023-01-13T11:28:47.891Z,19.33
2023-01-13T11:31:55.891Z,22.15
2023-01-13T11:34:40.689Z,21.60
2023-01-13T11:37:20.682Z,17.23
2023-01-13T11:40:15.040Z,15.15
2023-01-13T11:43:18.180Z,12.32
2023-01-13T11:45:56.111Z,13.95
2023-01-13T11:48:29.066Z,22.42
2023-01-13T11:51:35.000Z,15.45
2023-01-13T11:54:24.763Z,16.15
2023-01-13T11:57:18.659Z,25.45
2023-01-13T12:00:17.871Z,18.02
2023-01-13T12:02:53.225Z,20.27
2023-01-13T12:05:42.939Z,33.05
2023-01-13T12:08:26.415Z,15.75
2023-01-13T12:11:23.879Z,23.02
2023-01-13T12:14:24.523Z,19.63
2023-01-13T12:16:52.783Z,22.70
2023-01-13T12:19:28.326Z,22.15
2023-01-13T12:22:17.839Z,20.10
2023-01-13T12:25:00.857Z,18.27
2023-01-13T12:27:47.617Z,23.17
2023-01-13T12:30:42.341Z,19.27
2023-01-13T12:33:56.339Z,18.25
2023-01-13T12:37:22.983Z,19.02
2023-01-13T12:39:53.901Z,16.55
2023-01-13T12:42:58.151Z,19.73
2023-01-13T12:45:33.420Z,22.35
2023-01-13T12:48:02.230Z,15.80
2023-01-13T12:50:30.343Z,18.92
2023-01-13T12:53:30.253Z,16.27
2023-01-13T12:56:25.682Z,15.13
2023-01-13T12:59:16.935Z,17.65
2023-01-13T13:01:48.311Z,15.00
2023-01-13T13:04:41.812Z,16.00
2023-01-13T13:07:17.640Z,14.32
2023-01-13T13:09:53.670Z,18.13
2023-01-13T13:12:49.877Z,19.20
2023-01-13T13:15:28.724Z,17.77
2023-01-13T13:18:02.585Z,17.67
2023-01-13T13:20:58.045Z,15.10
2023-01-13T13:23:39.592Z,18.88
2023-01-13T13:26:26.948Z,16.02
2023-01-13T13:29:22.113Z,16.75
2023-01-13T13:32:03.116Z,19.00
2023-01-13T13:34:51.829Z,16.05
2023-01-13T13:38:19.757Z,18.27
2023-01-13T13:41:08.253Z,14.02
2023-01-13T13:44:04.729Z,16.30
2023-01-13T13:46:47.266Z,18.05
2023-01-13T13:49:22.578Z,19.10
2023-01-13T13:52:15.525Z,18.17
2023-01-13T13:54:49.797Z,18.10
2023-01-13T13:57:35.156Z,19.83
2023-01-13T14:00:30.923Z,16.25
2023-01-13T14:03:19.622Z,15.50
2023-01-13T14:06:01.242Z,16.25
2023-01-13T14:08:35.175Z,18.02
2023-01-13T14:11:33.037Z,15.73
2023-01-13T14:14:13.070Z,17.10
2023-01-13T14:16:44.277Z,18.13
2023-01-13T14:19:36.037Z,16.42
2023-01-13T14:22:05.850Z,18.98
2023-01-13T14:24:34.523Z,17.52
2023-01-13T14:27:18.368Z,19.83
2023-01-13T14:29:46.879Z,21.60
2023-01-13T14:32:20.363Z,19.08
2023-01-13T14:34:49.323Z,16.95
2023-01-13T14:37:39.097Z,18.10
2023-01-13T14:40:36.453Z,16.27
2023-01-13T14:43:16.530Z,16.75
2023-01-13T14:45:58.440Z,17.92
2023-01-13T14:48:38.093Z,20.17
2023-01-13T14:51:11.863Z,21.92
2023-01-13T14:53:47.356Z,23.85
2023-01-13T14:56:38.585Z,18.40
2023-01-13T14:59:41.840Z,22.30
2023-01-13T15:02:33.085Z,16.73
2023-01-13T15:05:18.267Z,19.58
2023-01-13T15:08:11.415Z,16.17
2023-01-13T15:11:02.007Z,21.75
2023-01-13T15:13:53.073Z,20.20
2023-01-13T15:16:27.688Z,22.50
2023-01-13T15:18:58.231Z,17.40
2023-01-13T15:21:26.692Z,24.80
2023-01-13T15:23:55.564Z,19.48
2023-01-13T15:26:30.579Z,33.67
2023-01-13T15:29:01.035Z,23.00
2023-01-13T15:31:30.118Z,19.20
2023-01-13T15:34:00.833Z,17.98
2023-01-13T15:36:35.032Z,18.90
2023-01-13T15:39:04.292Z,21.13
2023-01-13T15:41:51.884Z,23.40
2023-01-13T15:44:38.815Z,19.10
2023-01-13T15:47:10.316Z,20.98
2023-01-13T15:49:42.391Z,20.92
2023-01-13T15:52:26.482Z,24.67
2023-01-13T15:54:55.570Z,28.35
2023-01-13T15:57:35.941Z,22.83
2023-01-13T16:00:23.535Z,21.70
2023-01-13T16:02:52.526Z,21.27
2023-01-13T16:05:21.135Z,24.77
2023-01-13T16:07:49.434Z,20.23
2023-01-13T16:10:28.330Z,20.40
2023-01-13T16:12:56.575Z,18.42
2023-01-13T16:15:26.205Z,18.83
2023-01-13T16:18:00.262Z,21.83
2023-01-13T16:20:29.735Z,20.23
2023-01-13T16:22:58.250Z,16.58
2023-01-13T16:25:27.643Z,22.48
2023-01-13T16:27:56.380Z,19.90
2023-01-13T16:30:28.172Z,21.90
2023-01-13T16:32:57.383Z,21.85
2023-01-13T16:35:26.486Z,22.88
2023-01-13T16:37:58.644Z,19.05
2023-01-13T16:40:36.715Z,20.15
2023-01-13T16:43:07.077Z,19.77
2023-01-13T16:45:35.495Z,21.52
2023-01-13T16:48:04.688Z,18.98
2023-01-13T16:50:43.518Z,20.42
2023-01-13T16:53:13.846Z,16.88
2023-01-13T16:55:43.385Z,16.83
2023-01-13T16:58:20.874Z,18.58
2023-01-13T17:00:52.172Z,20.35
2023-01-13T17:03:20.502Z,16.27
2023-01-13T17:05:49.423Z,20.52
2023-01-13T17:08:18.357Z,19.70
2023-01-13T17:10:47.447Z,20.27
2023-01-13T17:13:17.270Z,21.23
2023-01-13T17:15:46.100Z,23.63
2023-01-13T17:18:14.448Z,21.55
2023-01-13T17:20:42.680Z,20.50
2023-01-13T17:23:11.182Z,20.98
2023-01-13T17:25:43.087Z,20.85
2023-01-13T17:28:11.684Z,25.92
2023-01-13T17:30:42.157Z,21.02
2023-01-13T17:33:11.441Z,20.63
2023-01-13T17:35:40.006Z,22.63
2023-01-13T17:38:08.532Z,16.23
2023-01-13T17:40:38.096Z,23.17
2023-01-13T17:43:06.769Z,24.08
2023-01-13T17:45:34.882Z,21.10
2023-01-13T17:48:02.894Z,20.73
2023-01-13T17:50:32.802Z,22.70
2023-01-13T17:53:00.743Z,21.55
2023-01-13T17:55:28.681Z,24.55
2023-01-13T17:57:57.012Z,27.15
2023-01-13T18:00:25.635Z,23.73
2023-01-13T18:02:56.483Z,21.10
2023-01-13T18:05:25.191Z,25.70
2023-01-13T18:07:53.338Z,26.73
2023-01-13T18:10:21.514Z,22.92
2023-01-13T18:12:50.029Z,26.60
2023-01-13T18:15:18.467Z,19.33
2023-01-13T18:17:47.439Z,22.38
2023-01-13T18:20:37.325Z,19.25
2023-01-13T18:23:24.249Z,22.08
2023-01-13T18:26:12.475Z,25.92
2023-01-13T18:28:40.556Z,22.20
2023-01-13T18:31:10.571Z,25.42
2023-01-13T18:33:39.056Z,24.23
2023-01-13T18:36:08.878Z,23.02
2023-01-13T18:38:38.538Z,22.15
2023-01-13T18:41:26.883Z,25.55
2023-01-13T18:43:55.363Z,28.60
2023-01-13T18:46:23.504Z,25.38
2023-01-13T18:48:51.861Z,29.67
2023-01-13T18:51:20.148Z,25.48
2023-01-13T18:53:48.406Z,25.25
2023-01-13T18:56:16.702Z,27.20
2023-01-13T18:58:52.296Z,25.83
2023-01-13T19:01:25.832Z,29.30
2023-01-13T19:03:59.859Z,25.35
2023-01-13T19:06:32.228Z,20.35
2023-01-13T19:09:08.722Z,21.73
2023-01-13T19:11:37.252Z,21.48
2023-01-13T19:14:05.556Z,26.25
2023-01-13T19:16:33.854Z,24.25
2023-01-13T19:19:02.657Z,43.20
2023-01-13T19:21:30.842Z,21.77
2023-01-13T19:23:59.106Z,18.15
2023-01-13T19:26:27.289Z,20.88
2023-01-13T19:28:55.538Z,19.30
2023-01-13T19:31:23.752Z,23.45
2023-01-13T19:33:53.791Z,21.33
2023-01-13T19:36:22.165Z,18.35
2023-01-13T19:38:50.447Z,17.73
2023-01-13T19:41:37.609Z,19.55
2023-01-13T19:44:25.182Z,18.67
2023-01-13T19:46:53.467Z,24.17
2023-01-13T19:49:22.108Z,18.77
2023-01-13T19:51:51.265Z,23.65
2023-01-13T19:54:19.695Z,19.58
2023-01-13T19:56:48.235Z,20.08
2023-01-13T19:59:22.563Z,20.88
2023-01-13T20:01:51.424Z,19.90
2023-01-13T20:04:27.471Z,20.58
2023-01-13T20:06:57.474Z,22.58
2023-01-13T20:09:25.895Z,22.05
2023-01-13T20:11:55.097Z,22.25
2023-01-13T20:14:24.131Z,21.30
2023-01-13T20:16:52.925Z,17.05
2023-01-13T20:19:21.710Z,20.05
2023-01-13T20:21:50.214Z,17.95
2023-01-13T20:24:18.472Z,20.65
2023-01-13T20:26:47.664Z,22.25
2023-01-13T20:29:16.169Z,17.98
2023-01-13T20:31:44.684Z,18.00
2023-01-13T20:34:15.315Z,15.90
2023-01-13T20:36:44.185Z,18.83
2023-01-13T20:39:17.942Z,16.25
2023-01-13T20:42:04.780Z,19.23
2023-01-13T20:44:33.312Z,17.23
2023-01-13T20:47:02.909Z,17.35
2023-01-13T20:49:31.576Z,17.15
2023-01-13T20:52:00.555Z,16.45
2023-01-13T20:54:29.138Z,24.10
2023-01-13T20:56:57.623Z,18.60
2023-01-13T20:59:26.756Z,20.02
2023-01-13T21:01:55.272Z,16.88
2023-01-13T21:04:23.558Z,17.77
2023-01-13T21:06:52.514Z,14.60
2023-01-13T21:09:21.037Z,18.77
2023-01-13T21:12:08.913Z,20.77
2023-01-13T21:14:57.338Z,18.67
2023-01-13T21:17:45.376Z,23.33
2023-01-13T21:20:15.659Z,20.95
2023-01-13T21:22:50.700Z,16.50
2023-01-13T21:25:20.828Z,19.50
2023-01-13T21:27:55.842Z,19.52
2023-01-13T21:30:25.570Z,24.73
2023-01-13T21:32:54.121Z,15.80
2023-01-13T21:35:22.964Z,20.02
2023-01-13T21:37:51.269Z,16.60
2023-01-13T21:40:19.752Z,19.38
2023-01-13T21:43:07.208Z,17.48
2023-01-13T21:45:57.132Z,17.85
2023-01-13T21:48:25.625Z,15.82
2023-01-13T21:50:55.093Z,14.75
2023-01-13T21:53:23.719Z,16.65
2023-01-13T21:55:54.139Z,19.85
2023-01-13T21:58:22.627Z,18.70
2023-01-13T22:00:50.855Z,17.42
2023-01-13T22:03:19.434Z,21.60
2023-01-13T22:05:55.727Z,18.08
2023-01-13T22:08:24.273Z,17.17
2023-01-13T22:10:58.104Z,15.50
2023-01-13T22:13:47.881Z,16.17
2023-01-13T22:16:16.829Z,15.18
2023-01-13T22:18:45.757Z,15.10
2023-01-13T22:21:14.388Z,15.65
2023-01-13T22:23:44.891Z,16.40
2023-01-13T22:26:13.685Z,14.75
2023-01-13T22:28:43.472Z,18.67
2023-01-13T22:31:18.030Z,18.35
2023-01-13T22:33:49.612Z,13.75
2023-01-13T22:36:19.699Z,18.30
2023-01-13T22:38:55.076Z,12.63
2023-01-13T22:41:23.896Z,14.68
2023-01-13T22:43:52.360Z,14.30
2023-01-13T22:46:20.741Z,13.88
2023-01-13T22:48:53.826Z,15.88
2023-01-13T22:51:23.125Z,13.40
2023-01-13T22:53:51.624Z,15.57
2023-01-13T22:56:22.738Z,16.25
2023-01-13T22:58:59.229Z,17.40
2023-01-13T23:01:31.175Z,14.77
2023-01-13T23:04:00.813Z,14.70
2023-01-13T23:06:32.752Z,20.90
2023-01-13T23:09:01.587Z,17.77
2023-01-13T23:11:30.813Z,17.98
2023-01-13T23:14:02.706Z,19.80
2023-01-13T23:16:34.977Z,16.75
2023-01-13T23:19:05.493Z,15.93
2023-01-13T23:21:37.445Z,21.48
2023-01-13T23:24:07.954Z,17.20
2023-01-13T23:26:39.980Z,16.25
2023-01-13T23:29:12.740Z,13.70
2023-01-13T23:31:41.600Z,13.65
2023-01-13T23:34:13.079Z,17.95
2023-01-13T23:36:43.449Z,15.20
2023-01-13T23:39:20.838Z,16.52
2023-01-13T23:41:49.651Z,16.50
2023-01-13T23:44:17.947Z,16.48
2023-01-13T23:46:46.650Z,15.60
2023-01-13T23:49:15.981Z,18.13
2023-01-13T23:51:44.087Z,15.82
2023-01-13T23:54:13.127Z,19.58
2023-01-13T23:56:41.829Z,14.43
2023-01-13T23:59:10.759Z,18.63
